sensor_id;sensor_type;location;lat;lon;timestamp;temperature;humidity
15615;DHT22;7907;51.368;6.730;2022-11-02T00:00:24;14.30;99.90
15615;DHT22;7907;51.368;6.730;2022-11-02T00:02:52;14.30;99.90
15615;DHT22;7907;51.368;6.730;2022-11-02T00:05:19;14.40;99.90
15615;DHT22;7907;51.368;6.730;2022-11-02T00:07:49;14.40;99.90
15615;DHT22;7907;51.368;6.730;2022-11-02T00:10:19;14.40;99.90
15615;DHT22;7907;51.368;6.730;2022-11-02T00:12:47;14.40;99.90
15615;DHT22;7907;51.368;6.730;2022-11-02T00:15:15;14.40;99.90
15615;DHT22;7907;51.368;6.730;2022-11-02T00:17:45;14.40;99.90
15615;DHT22;7907;51.368;6.730;2022-11-02T00:20:15;14.40;99.90
15615;DHT22;7907;51.368;6.730;2022-11-02T00:22:45;14.40;99.90
15615;DHT22;7907;51.368;6.730;2022-11-02T00:25:15;14.40;99.90
15615;DHT22;7907;51.368;6.730;2022-11-02T00:27:46;14.40;99.90
15615;DHT22;7907;51.368;6.730;2022-11-02T00:30:14;14.30;99.90
15615;DHT22;7907;51.368;6.730;2022-11-02T00:32:42;14.40;99.90
15615;DHT22;7907;51.368;6.730;2022-11-02T00:35:09;14.40;99.90
15615;DHT22;7907;51.368;6.730;2022-11-02T00:37:36;14.40;99.90
15615;DHT22;7907;51.368;6.730;2022-11-02T00:40:05;14.40;99.90
15615;DHT22;7907;51.368;6.730;2022-11-02T00:42:32;14.40;99.90
15615;DHT22;7907;51.368;6.730;2022-11-02T00:45:01;14.40;99.90
15615;DHT22;7907;51.368;6.730;2022-11-02T00:47:29;14.40;99.90
15615;DHT22;7907;51.368;6.730;2022-11-02T00:49:57;14.50;99.90
15615;DHT22;7907;51.368;6.730;2022-11-02T00:52:25;14.50;99.90
15615;DHT22;7907;51.368;6.730;2022-11-02T00:54:52;14.50;99.90
15615;DHT22;7907;51.368;6.730;2022-11-02T00:57:19;14.50;99.90
15615;DHT22;7907;51.368;6.730;2022-11-02T00:59:48;14.50;99.90
15615;DHT22;7907;51.368;6.730;2022-11-02T01:02:17;14.50;99.90
15615;DHT22;7907;51.368;6.730;2022-11-02T01:04:44;14.50;99.90
15615;DHT22;7907;51.368;6.730;2022-11-02T01:07:11;14.50;99.90
15615;DHT22;7907;51.368;6.730;2022-11-02T01:09:38;14.50;99.90
15615;DHT22;7907;51.368;6.730;2022-11-02T01:12:06;14.50;99.90
15615;DHT22;7907;51.368;6.730;2022-11-02T01:14:33;14.50;99.90
15615;DHT22;7907;51.368;6.730;2022-11-02T01:17:01;14.50;99.90
15615;DHT22;7907;51.368;6.730;2022-11-02T01:19:31;14.40;99.90
15615;DHT22;7907;51.368;6.730;2022-11-02T01:21:58;14.40;99.90
15615;DHT22;7907;51.368;6.730;2022-11-02T01:24:25;14.40;99.90
15615;DHT22;7907;51.368;6.730;2022-11-02T01:26:52;14.40;99.90
15615;DHT22;7907;51.368;6.730;2022-11-02T01:29:20;14.40;99.90
15615;DHT22;7907;51.368;6.730;2022-11-02T01:31:47;14.30;99.90
15615;DHT22;7907;51.368;6.730;2022-11-02T01:34:14;14.30;99.90
15615;DHT22;7907;51.368;6.730;2022-11-02T01:36:43;14.30;99.90
15615;DHT22;7907;51.368;6.730;2022-11-02T01:39:10;14.20;99.90
15615;DHT22;7907;51.368;6.730;2022-11-02T01:41:38;14.20;99.90
15615;DHT22;7907;51.368;6.730;2022-11-02T01:44:25;14.20;99.90
15615;DHT22;7907;51.368;6.730;2022-11-02T01:46:55;14.20;99.90
15615;DHT22;7907;51.368;6.730;2022-11-02T01:49:24;14.30;99.90
15615;DHT22;7907;51.368;6.730;2022-11-02T01:51:59;14.30;99.90
15615;DHT22;7907;51.368;6.730;2022-11-02T01:54:30;14.20;99.90
15615;DHT22;7907;51.368;6.730;2022-11-02T01:57:05;14.30;99.90
15615;DHT22;7907;51.368;6.730;2022-11-02T01:59:35;14.30;99.90
15615;DHT22;7907;51.368;6.730;2022-11-02T02:02:15;14.30;99.90
15615;DHT22;7907;51.368;6.730;2022-11-02T02:04:43;14.20;99.90
15615;DHT22;7907;51.368;6.730;2022-11-02T02:07:14;14.20;99.90
15615;DHT22;7907;51.368;6.730;2022-11-02T02:09:41;14.10;99.90
15615;DHT22;7907;51.368;6.730;2022-11-02T02:12:11;14.20;99.90
15615;DHT22;7907;51.368;6.730;2022-11-02T02:14:38;14.20;99.90
15615;DHT22;7907;51.368;6.730;2022-11-02T02:17:19;14.20;99.90
15615;DHT22;7907;51.368;6.730;2022-11-02T02:19:57;14.10;99.90
15615;DHT22;7907;51.368;6.730;2022-11-02T02:22:44;14.10;99.90
15615;DHT22;7907;51.368;6.730;2022-11-02T02:25:46;14.20;99.90
15615;DHT22;7907;51.368;6.730;2022-11-02T02:28:19;14.10;99.90
15615;DHT22;7907;51.368;6.730;2022-11-02T02:30:56;14.10;99.90
15615;DHT22;7907;51.368;6.730;2022-11-02T02:33:28;14.10;99.90
15615;DHT22;7907;51.368;6.730;2022-11-02T02:36:01;14.10;99.90
15615;DHT22;7907;51.368;6.730;2022-11-02T02:38:34;14.10;99.90
15615;DHT22;7907;51.368;6.730;2022-11-02T02:41:10;14.10;99.90
15615;DHT22;7907;51.368;6.730;2022-11-02T02:43:43;14.20;99.90
15615;DHT22;7907;51.368;6.730;2022-11-02T02:46:18;14.10;99.90
15615;DHT22;7907;51.368;6.730;2022-11-02T02:48:46;14.20;99.90
15615;DHT22;7907;51.368;6.730;2022-11-02T02:51:17;14.20;99.90
15615;DHT22;7907;51.368;6.730;2022-11-02T02:53:49;14.20;99.90
15615;DHT22;7907;51.368;6.730;2022-11-02T02:56:20;14.20;99.90
15615;DHT22;7907;51.368;6.730;2022-11-02T02:58:55;14.20;99.90
15615;DHT22;7907;51.368;6.730;2022-11-02T03:01:26;14.20;99.90
15615;DHT22;7907;51.368;6.730;2022-11-02T03:03:54;14.20;99.90
15615;DHT22;7907;51.368;6.730;2022-11-02T03:06:25;14.20;99.90
15615;DHT22;7907;51.368;6.730;2022-11-02T03:09:01;14.10;99.90
15615;DHT22;7907;51.368;6.730;2022-11-02T03:11:31;14.10;99.90
15615;DHT22;7907;51.368;6.730;2022-11-02T03:14:18;14.10;99.90
15615;DHT22;7907;51.368;6.730;2022-11-02T03:17:02;14.00;99.90
15615;DHT22;7907;51.368;6.730;2022-11-02T03:19:40;14.00;99.90
15615;DHT22;7907;51.368;6.730;2022-11-02T03:22:17;14.00;99.90
15615;DHT22;7907;51.368;6.730;2022-11-02T03:24:51;13.90;99.90
15615;DHT22;7907;51.368;6.730;2022-11-02T03:27:22;13.90;99.90
15615;DHT22;7907;51.368;6.730;2022-11-02T03:29:56;13.90;99.90
15615;DHT22;7907;51.368;6.730;2022-11-02T03:32:34;13.80;99.90
15615;DHT22;7907;51.368;6.730;2022-11-02T03:35:04;13.80;99.90
15615;DHT22;7907;51.368;6.730;2022-11-02T03:37:35;13.80;99.90
15615;DHT22;7907;51.368;6.730;2022-11-02T03:40:06;13.70;99.90
15615;DHT22;7907;51.368;6.730;2022-11-02T03:42:36;13.70;99.90
15615;DHT22;7907;51.368;6.730;2022-11-02T03:45:09;13.70;99.90
15615;DHT22;7907;51.368;6.730;2022-11-02T03:47:41;13.70;99.90
15615;DHT22;7907;51.368;6.730;2022-11-02T03:50:11;13.70;99.90
15615;DHT22;7907;51.368;6.730;2022-11-02T03:52:43;13.60;99.90
15615;DHT22;7907;51.368;6.730;2022-11-02T03:55:14;13.60;99.90
15615;DHT22;7907;51.368;6.730;2022-11-02T03:57:47;13.60;99.90
15615;DHT22;7907;51.368;6.730;2022-11-02T04:00:19;13.60;99.90
15615;DHT22;7907;51.368;6.730;2022-11-02T04:02:49;13.60;99.90
15615;DHT22;7907;51.368;6.730;2022-11-02T04:05:18;13.60;99.90
15615;DHT22;7907;51.368;6.730;2022-11-02T04:07:49;13.50;99.90
15615;DHT22;7907;51.368;6.730;2022-11-02T04:10:35;13.50;99.90
15615;DHT22;7907;51.368;6.730;2022-11-02T04:13:22;13.50;99.90
15615;DHT22;7907;51.368;6.730;2022-11-02T04:16:05;13.50;99.90
15615;DHT22;7907;51.368;6.730;2022-11-02T04:18:32;13.40;99.90
15615;DHT22;7907;51.368;6.730;2022-11-02T04:21:17;13.40;99.90
15615;DHT22;7907;51.368;6.730;2022-11-02T04:23:44;13.40;99.90
15615;DHT22;7907;51.368;6.730;2022-11-02T04:26:28;13.40;99.90
15615;DHT22;7907;51.368;6.730;2022-11-02T04:28:55;13.40;99.90
15615;DHT22;7907;51.368;6.730;2022-11-02T04:31:24;13.40;99.90
15615;DHT22;7907;51.368;6.730;2022-11-02T04:33:51;13.30;99.90
15615;DHT22;7907;51.368;6.730;2022-11-02T04:36:18;13.30;99.90
15615;DHT22;7907;51.368;6.730;2022-11-02T04:38:45;13.40;99.90
15615;DHT22;7907;51.368;6.730;2022-11-02T04:41:13;13.30;99.90
15615;DHT22;7907;51.368;6.730;2022-11-02T04:43:58;13.30;99.90
15615;DHT22;7907;51.368;6.730;2022-11-02T04:46:30;13.30;99.90
15615;DHT22;7907;51.368;6.730;2022-11-02T04:48:58;13.30;99.90
15615;DHT22;7907;51.368;6.730;2022-11-02T04:51:26;13.30;99.90
15615;DHT22;7907;51.368;6.730;2022-11-02T04:53:55;13.40;99.90
15615;DHT22;7907;51.368;6.730;2022-11-02T04:56:23;13.30;99.90
15615;DHT22;7907;51.368;6.730;2022-11-02T04:58:51;13.40;99.90
15615;DHT22;7907;51.368;6.730;2022-11-02T05:01:21;13.40;99.90
15615;DHT22;7907;51.368;6.730;2022-11-02T05:03:53;13.30;99.90
15615;DHT22;7907;51.368;6.730;2022-11-02T05:06:21;13.30;99.90
15615;DHT22;7907;51.368;6.730;2022-11-02T05:08:51;13.30;99.90
15615;DHT22;7907;51.368;6.730;2022-11-02T05:11:19;13.30;99.90
15615;DHT22;7907;51.368;6.730;2022-11-02T05:13:49;13.40;99.90
15615;DHT22;7907;51.368;6.730;2022-11-02T05:16:16;13.40;99.90
15615;DHT22;7907;51.368;6.730;2022-11-02T05:18:44;13.40;99.90
15615;DHT22;7907;51.368;6.730;2022-11-02T05:21:13;13.40;99.90
15615;DHT22;7907;51.368;6.730;2022-11-02T05:23:40;13.40;99.90
15615;DHT22;7907;51.368;6.730;2022-11-02T05:26:10;13.40;99.90
15615;DHT22;7907;51.368;6.730;2022-11-02T05:28:37;13.40;99.90
15615;DHT22;7907;51.368;6.730;2022-11-02T05:31:05;13.40;99.90
15615;DHT22;7907;51.368;6.730;2022-11-02T05:33:33;13.30;99.90
15615;DHT22;7907;51.368;6.730;2022-11-02T05:36:00;13.30;99.90
15615;DHT22;7907;51.368;6.730;2022-11-02T05:38:29;13.30;99.90
15615;DHT22;7907;51.368;6.730;2022-11-02T05:40:58;13.20;99.90
15615;DHT22;7907;51.368;6.730;2022-11-02T05:43:25;13.20;99.90
15615;DHT22;7907;51.368;6.730;2022-11-02T05:45:54;13.20;99.90
15615;DHT22;7907;51.368;6.730;2022-11-02T05:48:22;13.20;99.90
15615;DHT22;7907;51.368;6.730;2022-11-02T05:50:54;13.10;99.90
15615;DHT22;7907;51.368;6.730;2022-11-02T05:53:21;13.10;99.90
15615;DHT22;7907;51.368;6.730;2022-11-02T05:55:50;13.00;99.90
15615;DHT22;7907;51.368;6.730;2022-11-02T05:58:18;13.00;99.90
15615;DHT22;7907;51.368;6.730;2022-11-02T06:00:45;13.00;99.90
15615;DHT22;7907;51.368;6.730;2022-11-02T06:03:13;13.00;99.90
15615;DHT22;7907;51.368;6.730;2022-11-02T06:05:42;12.90;99.90
15615;DHT22;7907;51.368;6.730;2022-11-02T06:08:09;12.90;99.90
15615;DHT22;7907;51.368;6.730;2022-11-02T06:10:45;12.90;99.90
15615;DHT22;7907;51.368;6.730;2022-11-02T06:13:14;12.80;99.90
15615;DHT22;7907;51.368;6.730;2022-11-02T06:15:42;12.80;99.90
15615;DHT22;7907;51.368;6.730;2022-11-02T06:18:09;12.80;99.90
15615;DHT22;7907;51.368;6.730;2022-11-02T06:20:38;12.80;99.90
15615;DHT22;7907;51.368;6.730;2022-11-02T06:23:06;12.80;99.90
15615;DHT22;7907;51.368;6.730;2022-11-02T06:25:33;12.70;99.90
15615;DHT22;7907;51.368;6.730;2022-11-02T06:28:00;12.70;99.90
15615;DHT22;7907;51.368;6.730;2022-11-02T06:30:29;12.70;99.90
15615;DHT22;7907;51.368;6.730;2022-11-02T06:32:56;12.60;99.90
15615;DHT22;7907;51.368;6.730;2022-11-02T06:35:24;12.70;99.90
15615;DHT22;7907;51.368;6.730;2022-11-02T06:37:52;12.70;99.90
15615;DHT22;7907;51.368;6.730;2022-11-02T06:40:19;12.70;99.90
15615;DHT22;7907;51.368;6.730;2022-11-02T06:42:46;12.70;99.90
15615;DHT22;7907;51.368;6.730;2022-11-02T06:45:14;12.70;99.90
15615;DHT22;7907;51.368;6.730;2022-11-02T06:47:42;12.70;99.90
15615;DHT22;7907;51.368;6.730;2022-11-02T06:50:10;12.70;99.90
15615;DHT22;7907;51.368;6.730;2022-11-02T06:52:42;12.80;99.90
15615;DHT22;7907;51.368;6.730;2022-11-02T06:55:10;12.80;99.90
15615;DHT22;7907;51.368;6.730;2022-11-02T06:57:37;12.90;99.90
15615;DHT22;7907;51.368;6.730;2022-11-02T07:00:06;12.90;99.90
15615;DHT22;7907;51.368;6.730;2022-11-02T07:02:34;13.00;99.90
15615;DHT22;7907;51.368;6.730;2022-11-02T07:05:06;12.90;99.90
15615;DHT22;7907;51.368;6.730;2022-11-02T07:07:33;13.00;99.90
15615;DHT22;7907;51.368;6.730;2022-11-02T07:10:01;13.00;99.90
15615;DHT22;7907;51.368;6.730;2022-11-02T07:12:31;13.00;99.90
15615;DHT22;7907;51.368;6.730;2022-11-02T07:14:58;13.00;99.90
15615;DHT22;7907;51.368;6.730;2022-11-02T07:17:26;13.00;99.90
15615;DHT22;7907;51.368;6.730;2022-11-02T07:19:53;13.00;99.90
15615;DHT22;7907;51.368;6.730;2022-11-02T07:22:22;13.00;99.90
15615;DHT22;7907;51.368;6.730;2022-11-02T07:24:49;13.00;99.90
15615;DHT22;7907;51.368;6.730;2022-11-02T07:27:17;13.00;99.90
15615;DHT22;7907;51.368;6.730;2022-11-02T07:29:45;13.10;99.90
15615;DHT22;7907;51.368;6.730;2022-11-02T07:32:12;13.00;99.90
15615;DHT22;7907;51.368;6.730;2022-11-02T07:34:40;13.10;99.90
15615;DHT22;7907;51.368;6.730;2022-11-02T07:37:07;13.00;99.90
15615;DHT22;7907;51.368;6.730;2022-11-02T07:39:37;13.10;99.90
15615;DHT22;7907;51.368;6.730;2022-11-02T07:42:06;13.00;99.90
15615;DHT22;7907;51.368;6.730;2022-11-02T07:44:33;13.00;99.90
15615;DHT22;7907;51.368;6.730;2022-11-02T07:47:00;13.10;99.90
15615;DHT22;7907;51.368;6.730;2022-11-02T07:49:27;13.10;99.90
15615;DHT22;7907;51.368;6.730;2022-11-02T07:51:55;13.10;99.90
15615;DHT22;7907;51.368;6.730;2022-11-02T07:54:23;13.10;99.90
15615;DHT22;7907;51.368;6.730;2022-11-02T07:56:51;13.10;99.90
15615;DHT22;7907;51.368;6.730;2022-11-02T07:59:19;13.20;99.90
15615;DHT22;7907;51.368;6.730;2022-11-02T08:01:47;13.20;99.90
15615;DHT22;7907;51.368;6.730;2022-11-02T08:04:17;13.30;99.90
15615;DHT22;7907;51.368;6.730;2022-11-02T08:06:44;13.30;99.90
15615;DHT22;7907;51.368;6.730;2022-11-02T08:09:12;13.30;99.90
15615;DHT22;7907;51.368;6.730;2022-11-02T08:11:41;13.40;99.90
15615;DHT22;7907;51.368;6.730;2022-11-02T08:14:10;13.40;99.90
15615;DHT22;7907;51.368;6.730;2022-11-02T08:16:37;13.40;99.90
15615;DHT22;7907;51.368;6.730;2022-11-02T08:19:04;13.40;99.90
15615;DHT22;7907;51.368;6.730;2022-11-02T08:21:31;13.40;99.90
15615;DHT22;7907;51.368;6.730;2022-11-02T08:23:59;13.50;99.90
15615;DHT22;7907;51.368;6.730;2022-11-02T08:26:26;13.50;99.90
15615;DHT22;7907;51.368;6.730;2022-11-02T08:28:54;13.60;99.90
15615;DHT22;7907;51.368;6.730;2022-11-02T08:31:23;13.60;99.90
15615;DHT22;7907;51.368;6.730;2022-11-02T08:33:50;13.60;99.90
15615;DHT22;7907;51.368;6.730;2022-11-02T08:36:21;13.60;99.90
15615;DHT22;7907;51.368;6.730;2022-11-02T08:38:52;13.70;99.90
15615;DHT22;7907;51.368;6.730;2022-11-02T08:41:26;13.70;99.90
15615;DHT22;7907;51.368;6.730;2022-11-02T08:43:53;13.80;99.90
15615;DHT22;7907;51.368;6.730;2022-11-02T08:46:23;13.80;99.90
15615;DHT22;7907;51.368;6.730;2022-11-02T08:48:50;13.80;99.90
15615;DHT22;7907;51.368;6.730;2022-11-02T08:51:18;13.90;99.90
15615;DHT22;7907;51.368;6.730;2022-11-02T08:53:45;13.90;99.90
15615;DHT22;7907;51.368;6.730;2022-11-02T08:56:13;13.80;99.90
15615;DHT22;7907;51.368;6.730;2022-11-02T08:58:41;13.90;99.90
15615;DHT22;7907;51.368;6.730;2022-11-02T09:01:12;13.90;99.90
15615;DHT22;7907;51.368;6.730;2022-11-02T09:03:41;14.00;99.90
15615;DHT22;7907;51.368;6.730;2022-11-02T09:06:09;14.00;99.90
15615;DHT22;7907;51.368;6.730;2022-11-02T09:08:36;14.10;99.90
15615;DHT22;7907;51.368;6.730;2022-11-02T09:11:03;14.20;99.90
15615;DHT22;7907;51.368;6.730;2022-11-02T09:13:31;14.20;99.90
15615;DHT22;7907;51.368;6.730;2022-11-02T09:15:59;14.20;99.90
15615;DHT22;7907;51.368;6.730;2022-11-02T09:18:27;14.20;99.90
15615;DHT22;7907;51.368;6.730;2022-11-02T09:21:00;14.20;99.90
15615;DHT22;7907;51.368;6.730;2022-11-02T09:23:27;14.30;99.90
15615;DHT22;7907;51.368;6.730;2022-11-02T09:25:54;14.30;99.90
15615;DHT22;7907;51.368;6.730;2022-11-02T09:28:23;14.30;99.90
15615;DHT22;7907;51.368;6.730;2022-11-02T09:30:50;14.20;99.90
15615;DHT22;7907;51.368;6.730;2022-11-02T09:33:18;14.30;99.90
15615;DHT22;7907;51.368;6.730;2022-11-02T09:35:47;14.30;99.90
15615;DHT22;7907;51.368;6.730;2022-11-02T09:38:21;14.40;99.90
15615;DHT22;7907;51.368;6.730;2022-11-02T09:41:11;14.40;99.90
15615;DHT22;7907;51.368;6.730;2022-11-02T09:43:48;14.40;99.90
15615;DHT22;7907;51.368;6.730;2022-11-02T09:46:19;14.40;99.90
15615;DHT22;7907;51.368;6.730;2022-11-02T09:48:49;14.40;99.90
15615;DHT22;7907;51.368;6.730;2022-11-02T09:51:20;14.50;99.90
15615;DHT22;7907;51.368;6.730;2022-11-02T09:53:57;14.50;99.90
15615;DHT22;7907;51.368;6.730;2022-11-02T09:56:29;14.50;99.90
15615;DHT22;7907;51.368;6.730;2022-11-02T09:58:59;14.40;99.90
15615;DHT22;7907;51.368;6.730;2022-11-02T10:01:38;14.50;99.90
15615;DHT22;7907;51.368;6.730;2022-11-02T10:07:07;14.60;99.90
15615;DHT22;7907;51.368;6.730;2022-11-02T10:09:47;14.70;99.90
15615;DHT22;7907;51.368;6.730;2022-11-02T10:12:21;14.70;99.90
15615;DHT22;7907;51.368;6.730;2022-11-02T10:14:55;14.70;99.90
15615;DHT22;7907;51.368;6.730;2022-11-02T10:17:27;14.70;99.90
15615;DHT22;7907;51.368;6.730;2022-11-02T10:19:58;14.70;99.90
15615;DHT22;7907;51.368;6.730;2022-11-02T10:22:36;14.70;99.90
15615;DHT22;7907;51.368;6.730;2022-11-02T10:25:11;14.70;99.90
15615;DHT22;7907;51.368;6.730;2022-11-02T10:27:42;14.70;99.90
15615;DHT22;7907;51.368;6.730;2022-11-02T10:30:13;14.70;99.90
15615;DHT22;7907;51.368;6.730;2022-11-02T10:32:43;14.80;99.90
15615;DHT22;7907;51.368;6.730;2022-11-02T10:35:16;14.70;99.90
15615;DHT22;7907;51.368;6.730;2022-11-02T10:37:55;14.80;99.90
15615;DHT22;7907;51.368;6.730;2022-11-02T10:40:43;14.90;99.90
15615;DHT22;7907;51.368;6.730;2022-11-02T10:43:22;15.00;99.90
15615;DHT22;7907;51.368;6.730;2022-11-02T10:46:08;15.20;99.90
15615;DHT22;7907;51.368;6.730;2022-11-02T10:48:41;15.20;99.90
15615;DHT22;7907;51.368;6.730;2022-11-02T10:51:14;15.20;99.90
15615;DHT22;7907;51.368;6.730;2022-11-02T10:53:44;15.20;99.90
15615;DHT22;7907;51.368;6.730;2022-11-02T10:56:16;15.30;99.90
15615;DHT22;7907;51.368;6.730;2022-11-02T10:58:49;15.40;99.90
15615;DHT22;7907;51.368;6.730;2022-11-02T11:01:16;15.50;99.90
15615;DHT22;7907;51.368;6.730;2022-11-02T11:03:59;15.60;99.90
15615;DHT22;7907;51.368;6.730;2022-11-02T11:06:29;15.70;99.90
15615;DHT22;7907;51.368;6.730;2022-11-02T11:09:03;15.80;99.90
15615;DHT22;7907;51.368;6.730;2022-11-02T11:11:35;15.90;99.90
15615;DHT22;7907;51.368;6.730;2022-11-02T11:14:05;16.00;99.90
15615;DHT22;7907;51.368;6.730;2022-11-02T11:16:36;16.10;99.90
15615;DHT22;7907;51.368;6.730;2022-11-02T11:19:13;16.10;99.90
15615;DHT22;7907;51.368;6.730;2022-11-02T11:21:43;16.10;99.90
15615;DHT22;7907;51.368;6.730;2022-11-02T11:24:25;16.20;99.90
15615;DHT22;7907;51.368;6.730;2022-11-02T11:27:01;16.30;99.90
15615;DHT22;7907;51.368;6.730;2022-11-02T11:29:33;16.40;99.90
15615;DHT22;7907;51.368;6.730;2022-11-02T11:32:02;16.40;99.30
15615;DHT22;7907;51.368;6.730;2022-11-02T11:34:32;16.40;98.90
15615;DHT22;7907;51.368;6.730;2022-11-02T11:37:08;16.50;98.70
15615;DHT22;7907;51.368;6.730;2022-11-02T11:39:37;16.60;97.80
15615;DHT22;7907;51.368;6.730;2022-11-02T11:42:15;16.70;95.50
15615;DHT22;7907;51.368;6.730;2022-11-02T11:44:46;16.80;95.70
15615;DHT22;7907;51.368;6.730;2022-11-02T11:47:26;16.80;95.40
15615;DHT22;7907;51.368;6.730;2022-11-02T11:49:54;17.00;96.00
15615;DHT22;7907;51.368;6.730;2022-11-02T11:52:26;17.10;96.10
15615;DHT22;7907;51.368;6.730;2022-11-02T11:54:55;17.10;96.40
15615;DHT22;7907;51.368;6.730;2022-11-02T11:57:29;17.30;96.30
15615;DHT22;7907;51.368;6.730;2022-11-02T11:59:58;17.40;95.40
15615;DHT22;7907;51.368;6.730;2022-11-02T12:02:30;17.50;95.00
15615;DHT22;7907;51.368;6.730;2022-11-02T12:05:10;17.60;95.50
15615;DHT22;7907;51.368;6.730;2022-11-02T12:07:54;17.70;94.20
15615;DHT22;7907;51.368;6.730;2022-11-02T12:13:27;17.70;93.80
15615;DHT22;7907;51.368;6.730;2022-11-02T12:16:12;17.80;95.10
15615;DHT22;7907;51.368;6.730;2022-11-02T12:19:03;17.70;94.50
15615;DHT22;7907;51.368;6.730;2022-11-02T12:21:49;17.50;94.70
15615;DHT22;7907;51.368;6.730;2022-11-02T12:24:41;17.40;94.70
15615;DHT22;7907;51.368;6.730;2022-11-02T12:27:22;17.40;95.20
15615;DHT22;7907;51.368;6.730;2022-11-02T12:30:02;17.40;94.90
15615;DHT22;7907;51.368;6.730;2022-11-02T12:32:53;17.40;94.80
15615;DHT22;7907;51.368;6.730;2022-11-02T12:35:31;17.50;95.00
15615;DHT22;7907;51.368;6.730;2022-11-02T12:38:12;17.80;95.00
15615;DHT22;7907;51.368;6.730;2022-11-02T12:40:53;18.20;94.80
15615;DHT22;7907;51.368;6.730;2022-11-02T12:43:37;18.40;93.30
15615;DHT22;7907;51.368;6.730;2022-11-02T12:46:12;18.60;92.40
15615;DHT22;7907;51.368;6.730;2022-11-02T12:48:52;18.90;91.60
15615;DHT22;7907;51.368;6.730;2022-11-02T12:51:25;19.10;91.30
15615;DHT22;7907;51.368;6.730;2022-11-02T12:53:57;19.20;91.60
15615;DHT22;7907;51.368;6.730;2022-11-02T12:56:30;19.30;91.60
15615;DHT22;7907;51.368;6.730;2022-11-02T12:58:59;19.50;90.90
15615;DHT22;7907;51.368;6.730;2022-11-02T13:01:33;19.40;90.00
15615;DHT22;7907;51.368;6.730;2022-11-02T13:04:09;19.30;90.00
15615;DHT22;7907;51.368;6.730;2022-11-02T13:06:41;19.30;89.70
15615;DHT22;7907;51.368;6.730;2022-11-02T13:09:12;18.90;89.10
15615;DHT22;7907;51.368;6.730;2022-11-02T13:11:43;18.60;90.20
15615;DHT22;7907;51.368;6.730;2022-11-02T13:14:12;18.60;91.00
15615;DHT22;7907;51.368;6.730;2022-11-02T13:16:48;18.80;91.00
15615;DHT22;7907;51.368;6.730;2022-11-02T13:19:19;19.20;90.90
15615;DHT22;7907;51.368;6.730;2022-11-02T13:21:50;19.50;90.50
15615;DHT22;7907;51.368;6.730;2022-11-02T13:24:22;19.70;90.10
15615;DHT22;7907;51.368;6.730;2022-11-02T13:26:50;20.00;90.00
15615;DHT22;7907;51.368;6.730;2022-11-02T13:29:23;20.30;87.80
15615;DHT22;7907;51.368;6.730;2022-11-02T13:31:56;20.40;86.50
15615;DHT22;7907;51.368;6.730;2022-11-02T13:34:31;20.30;85.10
15615;DHT22;7907;51.368;6.730;2022-11-02T13:37:05;20.10;85.70
15615;DHT22;7907;51.368;6.730;2022-11-02T13:39:36;20.10;85.10
15615;DHT22;7907;51.368;6.730;2022-11-02T13:42:37;20.40;84.30
15615;DHT22;7907;51.368;6.730;2022-11-02T13:45:21;20.40;84.50
15615;DHT22;7907;51.368;6.730;2022-11-02T13:51:16;19.80;85.00
15615;DHT22;7907;51.368;6.730;2022-11-02T13:53:51;19.70;86.20
15615;DHT22;7907;51.368;6.730;2022-11-02T13:56:22;19.90;85.20
15615;DHT22;7907;51.368;6.730;2022-11-02T13:58:54;20.30;84.90
15615;DHT22;7907;51.368;6.730;2022-11-02T14:01:23;20.40;83.90
15615;DHT22;7907;51.368;6.730;2022-11-02T14:03:55;20.10;84.20
15615;DHT22;7907;51.368;6.730;2022-11-02T14:06:24;19.70;84.20
15615;DHT22;7907;51.368;6.730;2022-11-02T14:08:54;19.40;85.30
15615;DHT22;7907;51.368;6.730;2022-11-02T14:11:25;19.20;84.80
15615;DHT22;7907;51.368;6.730;2022-11-02T14:14:21;19.40;84.90
15615;DHT22;7907;51.368;6.730;2022-11-02T14:17:11;19.70;84.80
15615;DHT22;7907;51.368;6.730;2022-11-02T14:19:52;20.20;85.30
15615;DHT22;7907;51.368;6.730;2022-11-02T14:22:20;20.60;83.40
15615;DHT22;7907;51.368;6.730;2022-11-02T14:25:04;20.90;82.10
15615;DHT22;7907;51.368;6.730;2022-11-02T14:27:33;20.80;81.10
15615;DHT22;7907;51.368;6.730;2022-11-02T14:30:00;20.80;79.80
15615;DHT22;7907;51.368;6.730;2022-11-02T14:32:41;20.50;79.50
15615;DHT22;7907;51.368;6.730;2022-11-02T14:35:32;20.10;80.10
15615;DHT22;7907;51.368;6.730;2022-11-02T14:41:15;19.30;81.80
15615;DHT22;7907;51.368;6.730;2022-11-02T14:44:02;19.00;83.20
15615;DHT22;7907;51.368;6.730;2022-11-02T14:46:42;18.90;84.00
15615;DHT22;7907;51.368;6.730;2022-11-02T14:49:19;18.80;84.60
15615;DHT22;7907;51.368;6.730;2022-11-02T14:51:57;18.70;85.30
15615;DHT22;7907;51.368;6.730;2022-11-02T14:54:26;19.00;85.50
15615;DHT22;7907;51.368;6.730;2022-11-02T14:56:57;19.30;85.20
15615;DHT22;7907;51.368;6.730;2022-11-02T14:59:30;19.50;83.70
15615;DHT22;7907;51.368;6.730;2022-11-02T15:02:00;19.70;83.30
15615;DHT22;7907;51.368;6.730;2022-11-02T15:04:30;19.80;82.50
15615;DHT22;7907;51.368;6.730;2022-11-02T15:07:02;19.60;82.50
15615;DHT22;7907;51.368;6.730;2022-11-02T15:09:50;19.40;82.60
15615;DHT22;7907;51.368;6.730;2022-11-02T15:12:34;19.20;83.70
15615;DHT22;7907;51.368;6.730;2022-11-02T15:15:27;19.00;84.20
15615;DHT22;7907;51.368;6.730;2022-11-02T15:18:31;18.60;84.50
15615;DHT22;7907;51.368;6.730;2022-11-02T15:21:29;18.30;85.80
15615;DHT22;7907;51.368;6.730;2022-11-02T15:24:08;18.00;86.70
15615;DHT22;7907;51.368;6.730;2022-11-02T15:26:43;17.80;87.70
15615;DHT22;7907;51.368;6.730;2022-11-02T15:29:19;17.60;88.60
15615;DHT22;7907;51.368;6.730;2022-11-02T15:31:53;17.40;89.90
15615;DHT22;7907;51.368;6.730;2022-11-02T15:34:27;17.20;90.30
15615;DHT22;7907;51.368;6.730;2022-11-02T15:36:58;17.00;90.90
15615;DHT22;7907;51.368;6.730;2022-11-02T15:39:28;16.90;91.60
15615;DHT22;7907;51.368;6.730;2022-11-02T15:42:01;16.70;92.10
15615;DHT22;7907;51.368;6.730;2022-11-02T15:47:27;16.40;93.70
15615;DHT22;7907;51.368;6.730;2022-11-02T15:50:14;16.30;94.80
15615;DHT22;7907;51.368;6.730;2022-11-02T15:53:20;16.20;95.90
15615;DHT22;7907;51.368;6.730;2022-11-02T15:56:01;16.00;97.00
15615;DHT22;7907;51.368;6.730;2022-11-02T15:58:41;16.00;98.10
15615;DHT22;7907;51.368;6.730;2022-11-02T16:01:26;15.80;98.90
15615;DHT22;7907;51.368;6.730;2022-11-02T16:03:56;15.70;99.80
15615;DHT22;7907;51.368;6.730;2022-11-02T16:06:25;15.60;99.90
15615;DHT22;7907;51.368;6.730;2022-11-02T16:08:54;15.50;99.90
15615;DHT22;7907;51.368;6.730;2022-11-02T16:11:32;15.40;99.90
15615;DHT22;7907;51.368;6.730;2022-11-02T16:14:14;15.30;99.90
15615;DHT22;7907;51.368;6.730;2022-11-02T16:16:45;15.20;99.90
15615;DHT22;7907;51.368;6.730;2022-11-02T16:19:17;15.10;99.90
15615;DHT22;7907;51.368;6.730;2022-11-02T16:21:49;15.00;99.90
15615;DHT22;7907;51.368;6.730;2022-11-02T16:24:16;15.00;99.90
15615;DHT22;7907;51.368;6.730;2022-11-02T16:26:46;14.90;99.90
15615;DHT22;7907;51.368;6.730;2022-11-02T16:29:28;14.80;99.90
15615;DHT22;7907;51.368;6.730;2022-11-02T16:31:56;14.70;99.90